createdAt,value
2023-10-05T00:03:00.332Z,19.66
2023-10-05T00:07:01.842Z,19.69
2023-10-05T00:11:07.619Z,19.61
2023-10-05T00:15:09.475Z,19.62
2023-10-05T00:19:13.580Z,19.67
2023-10-05T00:23:15.261Z,19.61
2023-10-05T00:27:16.704Z,19.69
2023-10-05T00:31:27.399Z,19.61
2023-10-05T00:35:30.412Z,19.56
2023-10-05T00:39:32.259Z,19.71
2023-10-05T00:43:33.682Z,19.79
2023-10-05T00:47:35.914Z,19.59
2023-10-05T00:51:37.849Z,19.77
2023-10-05T00:55:40.915Z,19.77
2023-10-05T00:59:45.521Z,19.65
2023-10-05T01:04:07.292Z,19.67
2023-10-05T01:08:16.451Z,19.88
2023-10-05T01:12:20.978Z,19.80
2023-10-05T01:16:23.239Z,19.78
2023-10-05T01:20:26.160Z,19.68
2023-10-05T01:24:28.779Z,19.55
2023-10-05T01:28:30.205Z,19.69
2023-10-05T01:32:34.039Z,19.77
2023-10-05T01:36:35.964Z,19.75
2023-10-05T01:40:37.401Z,19.87
2023-10-05T01:44:41.554Z,19.81
2023-10-05T01:48:43.894Z,19.94
2023-10-05T01:52:57.034Z,19.93
2023-10-05T01:57:02.429Z,20.05
2023-10-05T02:01:04.899Z,20.00
2023-10-05T02:05:08.175Z,20.03
2023-10-05T02:09:15.159Z,20.06
2023-10-05T02:13:17.913Z,20.20
2023-10-05T02:17:20.384Z,20.07
2023-10-05T02:21:31.028Z,20.02
2023-10-05T02:25:35.107Z,20.19
2023-10-05T02:29:41.049Z,19.97
2023-10-05T02:33:44.246Z,19.94
2023-10-05T02:37:49.910Z,19.83
2023-10-05T02:41:57.439Z,19.82
2023-10-05T02:46:11.065Z,19.80
2023-10-05T02:50:12.998Z,19.65
2023-10-05T02:54:15.462Z,19.78
2023-10-05T02:58:17.520Z,19.71
2023-10-05T03:02:19.482Z,19.59
2023-10-05T03:06:23.812Z,19.63
2023-10-05T03:10:25.562Z,19.69
2023-10-05T03:14:28.423Z,19.61
2023-10-05T03:18:29.748Z,19.59
2023-10-05T03:22:31.118Z,19.59
2023-10-05T03:26:32.520Z,19.50
2023-10-05T03:30:36.616Z,19.61
2023-10-05T03:34:38.330Z,19.59
2023-10-05T03:38:40.764Z,19.54
2023-10-05T03:42:43.300Z,19.43
2023-10-05T03:46:48.149Z,19.61
2023-10-05T03:50:49.525Z,19.57
2023-10-05T03:54:50.946Z,19.47
2023-10-05T03:58:53.709Z,19.62
2023-10-05T04:02:55.546Z,19.60
2023-10-05T04:06:59.509Z,19.59
2023-10-05T04:11:00.916Z,19.69
2023-10-05T04:15:02.632Z,19.64
2023-10-05T04:19:05.855Z,19.69
2023-10-05T04:23:08.535Z,19.69
2023-10-05T04:27:11.788Z,19.55
2023-10-05T04:31:15.286Z,19.59
2023-10-05T04:35:23.867Z,19.69
2023-10-05T04:39:30.800Z,19.56
2023-10-05T04:43:32.274Z,19.58
2023-10-05T04:47:34.260Z,19.46
2023-10-05T04:51:39.502Z,19.60
2023-10-05T04:55:46.109Z,19.30
2023-10-05T04:59:59.997Z,19.41
2023-10-05T05:04:28.307Z,19.37
2023-10-05T05:08:31.327Z,19.31
2023-10-05T05:12:32.811Z,19.45
2023-10-05T05:16:34.764Z,19.44
2023-10-05T05:20:36.183Z,19.33
2023-10-05T05:24:38.563Z,19.47
2023-10-05T05:28:40.226Z,19.41
2023-10-05T05:32:45.155Z,19.35
2023-10-05T05:36:46.575Z,19.35
2023-10-05T05:40:50.512Z,19.44
2023-10-05T05:44:53.614Z,19.43
2023-10-05T05:48:55.015Z,19.51
2023-10-05T05:52:57.850Z,19.48
2023-10-05T05:56:59.266Z,19.49
2023-10-05T06:01:01.070Z,19.49
2023-10-05T06:05:02.861Z,19.57
2023-10-05T06:09:08.424Z,19.88
2023-10-05T06:13:13.414Z,19.71
2023-10-05T06:17:14.860Z,19.97
2023-10-05T06:21:16.661Z,19.75
2023-10-05T06:25:18.905Z,20.02
2023-10-05T06:29:20.280Z,20.19
2023-10-05T06:33:21.858Z,20.26
2023-10-05T06:37:23.243Z,20.28
2023-10-05T06:41:24.607Z,20.27
2023-10-05T06:45:26.050Z,20.30
2023-10-05T06:49:28.476Z,20.45
2023-10-05T06:53:29.904Z,20.55
2023-10-05T06:57:31.284Z,20.53
2023-10-05T07:01:36.065Z,20.39
2023-10-05T07:05:37.722Z,20.65
2023-10-05T07:09:39.171Z,20.73
2023-10-05T07:13:40.542Z,20.70
2023-10-05T07:17:42.571Z,20.82
2023-10-05T07:21:44.070Z,20.80
2023-10-05T07:25:45.579Z,20.79
2023-10-05T07:29:47.118Z,20.96
2023-10-05T07:33:48.771Z,21.01
2023-10-05T07:37:50.131Z,21.18
2023-10-05T07:41:51.540Z,21.46
2023-10-05T07:45:52.934Z,21.23
2023-10-05T07:49:55.148Z,21.31
2023-10-05T07:53:56.567Z,21.47
2023-10-05T07:57:58.342Z,21.51
2023-10-05T08:01:59.873Z,21.82
2023-10-05T08:06:02.497Z,21.95
2023-10-05T08:10:04.433Z,22.31
2023-10-05T08:14:05.974Z,22.44
2023-10-05T08:18:07.598Z,23.03
2023-10-05T08:22:10.189Z,23.46
2023-10-05T08:26:11.784Z,23.69
2023-10-05T08:30:13.688Z,24.45
2023-10-05T08:34:24.034Z,24.98
2023-10-05T08:38:25.642Z,25.08
2023-10-05T08:42:28.943Z,25.41
2023-10-05T08:46:33.635Z,25.38
2023-10-05T08:50:36.291Z,25.57
2023-10-05T08:54:39.343Z,25.07
2023-10-05T08:58:48.680Z,25.60
2023-10-05T09:02:51.207Z,24.84
2023-10-05T09:06:56.384Z,24.84
2023-10-05T09:11:00.421Z,24.40
2023-10-05T09:15:20.452Z,24.14
2023-10-05T09:19:30.895Z,24.37
2023-10-05T09:23:32.721Z,24.35
2023-10-05T09:27:52.973Z,24.23
2023-10-05T09:31:59.245Z,23.64
2023-10-05T09:36:17.488Z,23.69
2023-10-05T09:40:19.206Z,23.71
2023-10-05T09:44:23.229Z,23.61
2023-10-05T09:48:25.944Z,23.92
2023-10-05T09:52:35.971Z,24.05
2023-10-05T09:56:44.648Z,23.77
2023-10-05T10:00:46.735Z,23.77
2023-10-05T10:04:49.094Z,23.54
2023-10-05T10:08:55.120Z,23.77
2023-10-05T10:12:57.297Z,23.67
2023-10-05T10:17:02.305Z,23.49
2023-10-05T10:21:09.652Z,23.82
2023-10-05T10:25:31.573Z,23.77
2023-10-05T10:29:46.010Z,23.73
2023-10-05T10:33:56.326Z,24.01
2023-10-05T10:38:00.250Z,24.32
2023-10-05T10:42:07.299Z,23.99
2023-10-05T10:46:15.664Z,23.90
2023-10-05T10:50:23.458Z,23.97
2023-10-05T10:54:25.518Z,23.80
2023-10-05T10:58:31.573Z,23.89
2023-10-05T11:02:39.616Z,23.83
2023-10-05T11:06:41.936Z,24.05
2023-10-05T11:10:44.001Z,24.43
2023-10-05T11:14:46.476Z,24.29
2023-10-05T11:19:07.617Z,24.62
2023-10-05T11:23:13.942Z,24.51
2023-10-05T11:27:17.056Z,24.74
2023-10-05T11:31:59.109Z,24.74
2023-10-05T11:35:50.818Z,24.87
2023-10-05T11:40:00.083Z,24.70
2023-10-05T11:44:03.869Z,24.71
2023-10-05T11:48:13.651Z,24.64
2023-10-05T11:52:17.910Z,24.75
2023-10-05T11:56:19.487Z,24.87
2023-10-05T12:00:21.276Z,25.14
2023-10-05T12:04:25.073Z,25.10
2023-10-05T12:08:26.583Z,25.20
2023-10-05T12:12:27.936Z,25.09
2023-10-05T12:16:34.254Z,24.95
2023-10-05T12:20:35.941Z,24.93
2023-10-05T12:24:38.627Z,24.65
2023-10-05T12:28:42.276Z,24.20
2023-10-05T12:32:43.694Z,24.40
2023-10-05T12:36:49.917Z,24.31
2023-10-05T12:40:51.356Z,24.39
2023-10-05T12:44:52.752Z,24.37
2023-10-05T12:48:54.169Z,24.45
2023-10-05T12:52:57.224Z,24.46
2023-10-05T12:57:17.755Z,24.54
2023-10-05T13:01:21.424Z,24.42
2023-10-05T13:05:31.684Z,25.00
2023-10-05T13:09:36.202Z,25.09
2023-10-05T13:13:37.737Z,25.19
2023-10-05T13:17:39.728Z,24.94
2023-10-05T13:21:43.840Z,25.15
2023-10-05T13:25:45.704Z,25.33
2023-10-05T13:29:50.098Z,25.08
2023-10-05T13:33:55.816Z,24.78
2023-10-05T13:37:59.071Z,24.97
2023-10-05T13:42:10.745Z,24.98
2023-10-05T13:46:20.304Z,25.09
2023-10-05T13:50:23.431Z,24.80
2023-10-05T13:54:24.841Z,24.35
2023-10-05T13:58:26.227Z,25.10
2023-10-05T14:02:28.278Z,25.17
2023-10-05T14:06:30.673Z,24.85
2023-10-05T14:10:32.320Z,25.00
2023-10-05T14:14:33.786Z,24.96
2023-10-05T14:18:35.242Z,25.16
2023-10-05T14:22:36.722Z,24.93
2023-10-05T14:26:38.268Z,24.70
2023-10-05T14:30:41.375Z,24.91
2023-10-05T14:34:43.282Z,25.40
2023-10-05T14:38:44.723Z,24.87
2023-10-05T14:42:48.725Z,25.03
2023-10-05T14:46:53.206Z,24.92
2023-10-05T14:50:54.614Z,25.09
2023-10-05T14:54:56.040Z,24.84
2023-10-05T14:58:57.934Z,24.84
2023-10-05T15:03:00.623Z,24.81
2023-10-05T15:07:02.059Z,24.55
2023-10-05T15:11:06.927Z,24.42
2023-10-05T15:15:11.074Z,24.04
2023-10-05T15:19:12.507Z,24.35
2023-10-05T15:23:14.434Z,24.08
2023-10-05T15:27:16.678Z,23.93
2023-10-05T15:31:19.364Z,23.97
2023-10-05T15:35:21.317Z,23.80
2023-10-05T15:39:22.660Z,23.72
2023-10-05T15:43:24.654Z,23.72
2023-10-05T15:47:29.558Z,23.55
2023-10-05T15:51:32.352Z,23.42
2023-10-05T15:55:34.689Z,23.41
2023-10-05T15:59:36.124Z,23.40
2023-10-05T16:03:37.595Z,23.44
2023-10-05T16:07:40.460Z,23.34
2023-10-05T16:11:42.335Z,23.29
2023-10-05T16:15:43.652Z,23.14
2023-10-05T16:19:45.179Z,23.12
2023-10-05T16:23:46.537Z,22.82
2023-10-05T16:27:49.413Z,22.91
2023-10-05T16:31:52.958Z,22.93
2023-10-05T16:35:55.632Z,22.78
2023-10-05T16:39:59.945Z,22.70
2023-10-05T16:44:01.338Z,22.65
2023-10-05T16:48:02.763Z,22.60
2023-10-05T16:52:04.338Z,22.46
2023-10-05T16:56:05.720Z,22.46
2023-10-05T17:00:23.809Z,22.20
2023-10-05T17:04:25.440Z,22.08
2023-10-05T17:08:28.342Z,22.06
2023-10-05T17:12:29.809Z,21.94
2023-10-05T17:16:31.290Z,21.85
2023-10-05T17:20:33.380Z,21.77
2023-10-05T17:24:34.857Z,21.71
2023-10-05T17:28:36.206Z,21.70
2023-10-05T17:32:39.626Z,21.54
2023-10-05T17:36:41.890Z,21.51
2023-10-05T17:40:56.661Z,21.51
2023-10-05T17:44:58.221Z,21.57
2023-10-05T17:49:00.311Z,21.61
2023-10-05T17:53:01.711Z,21.72
2023-10-05T17:57:05.361Z,21.70
2023-10-05T18:01:06.718Z,21.61
2023-10-05T18:05:10.442Z,21.69
2023-10-05T18:09:12.281Z,21.60
2023-10-05T18:13:13.638Z,21.61
2023-10-05T18:17:16.200Z,21.62
2023-10-05T18:21:18.343Z,21.67
2023-10-05T18:25:21.885Z,21.85
2023-10-05T18:29:23.273Z,21.80
2023-10-05T18:33:24.751Z,21.66
2023-10-05T18:37:28.006Z,21.58
2023-10-05T18:41:29.586Z,21.50
2023-10-05T18:45:31.212Z,21.55
2023-10-05T18:49:32.846Z,21.50
2023-10-05T18:53:38.523Z,21.49
2023-10-05T18:57:40.378Z,21.46
2023-10-05T19:01:42.646Z,21.48
2023-10-05T19:05:44.122Z,21.37
2023-10-05T19:09:45.491Z,21.44
2023-10-05T19:13:47.040Z,21.43
2023-10-05T19:17:48.469Z,21.28
2023-10-05T19:21:49.931Z,21.21
2023-10-05T19:25:59.456Z,21.17
2023-10-05T19:30:01.294Z,21.19
2023-10-05T19:34:02.618Z,21.10
2023-10-05T19:38:04.089Z,21.00
2023-10-05T19:42:07.389Z,20.90
2023-10-05T19:46:08.785Z,21.04
2023-10-05T19:50:11.576Z,21.01
2023-10-05T19:54:15.049Z,20.86
2023-10-05T19:58:19.163Z,20.81
2023-10-05T20:02:20.787Z,20.77
2023-10-05T20:06:22.209Z,20.75
2023-10-05T20:10:29.363Z,20.65
2023-10-05T20:14:31.040Z,20.64
2023-10-05T20:18:37.516Z,20.56
2023-10-05T20:22:39.950Z,20.45
2023-10-05T20:26:41.489Z,20.44
2023-10-05T20:30:42.912Z,20.46
2023-10-05T20:34:57.545Z,20.45
2023-10-05T20:38:58.953Z,20.47
2023-10-05T20:43:00.730Z,20.33
2023-10-05T20:47:02.240Z,20.33
2023-10-05T20:51:06.988Z,20.30
2023-10-05T20:55:08.956Z,20.26
2023-10-05T20:59:10.294Z,20.27
2023-10-05T21:03:14.719Z,20.23
2023-10-05T21:07:16.339Z,20.43
2023-10-05T21:11:20.903Z,20.33
2023-10-05T21:15:23.458Z,20.15
2023-10-05T21:19:24.841Z,20.09
2023-10-05T21:23:26.288Z,19.99
2023-10-05T21:27:28.490Z,19.87
2023-10-05T21:31:29.864Z,19.85
2023-10-05T21:35:31.233Z,19.80
2023-10-05T21:39:33.675Z,19.73
2023-10-05T21:43:35.085Z,19.67
2023-10-05T21:47:36.504Z,19.68
2023-10-05T21:51:37.847Z,19.65
2023-10-05T21:55:39.333Z,19.54
2023-10-05T21:59:40.664Z,19.52
2023-10-05T22:03:42.261Z,19.51
2023-10-05T22:07:45.967Z,19.41
2023-10-05T22:11:47.423Z,19.33
2023-10-05T22:15:50.266Z,19.35
2023-10-05T22:19:51.666Z,19.41
2023-10-05T22:23:53.012Z,19.34
2023-10-05T22:27:54.514Z,19.33
2023-10-05T22:31:55.907Z,19.36
2023-10-05T22:35:57.701Z,19.30
2023-10-05T22:39:59.042Z,19.23
2023-10-05T22:44:00.412Z,19.11
2023-10-05T22:48:02.106Z,19.02
2023-10-05T22:52:03.796Z,18.91
2023-10-05T22:56:05.309Z,18.91
2023-10-05T23:00:07.294Z,18.80
2023-10-05T23:04:08.957Z,18.92
2023-10-05T23:08:12.651Z,18.87
2023-10-05T23:12:14.676Z,18.65
2023-10-05T23:16:18.763Z,18.71
2023-10-05T23:20:26.167Z,18.64
2023-10-05T23:24:28.455Z,18.73
2023-10-05T23:28:29.829Z,18.67
2023-10-05T23:32:31.367Z,18.72
2023-10-05T23:36:34.707Z,18.68
2023-10-05T23:40:37.116Z,18.65
2023-10-05T23:44:39.923Z,18.68
2023-10-05T23:48:41.688Z,18.55
2023-10-05T23:52:45.363Z,18.62
2023-10-05T23:56:46.791Z,18.49
